Time;durP1;ratioP1;P1;durP2;ratioP2;P2;SDS_P1;SDS_P2;PMS_P1;PMS_P2;Temp;Humidity;BMP_temperature;BMP_pressure;BME280_temperature;BME280_humidity;BME280_pressure;Samples;Min_cycle;Max_cycle;Signal;HPM_P1;HPM_P2
2023/07/03 00:00:17;;;;;;;11.70;3.33;;;;;;;19.87;43.38;100934.16;4987601;28;119434;-71
2023/07/03 00:02:51;;;;;;;9.48;3.03;;;;;;;19.85;43.22;100923.50;4985992;28;124246;-72
2023/07/03 00:05:20;;;;;;;9.95;3.30;;;;;;;19.84;43.29;100919.13;4968805;28;123805;-71
2023/07/03 00:07:47;;;;;;;10.77;3.28;;;;;;;19.83;43.48;100922.78;4986055;28;120806;-71
2023/07/03 00:10:16;;;;;;;10.38;3.58;;;;;;;19.81;43.49;100919.38;4993762;28;120079;-71
2023/07/03 00:12:44;;;;;;;11.35;3.45;;;;;;;19.79;43.38;100910.59;4990336;28;125297;-71
2023/07/03 00:15:12;;;;;;;8.93;3.10;;;;;;;19.77;43.56;100910.72;4968600;28;122743;-71
2023/07/03 00:17:40;;;;;;;12.15;3.30;;;;;;;19.76;43.51;100916.22;4969223;28;120023;-71
2023/07/03 00:20:11;;;;;;;9.52;3.08;;;;;;;19.75;43.47;100919.91;4969396;28;119058;-71
2023/07/03 00:22:38;;;;;;;8.65;2.80;;;;;;;19.72;43.48;100915.63;4985816;28;125132;-71
2023/07/03 00:25:06;;;;;;;8.90;3.28;;;;;;;19.71;43.66;100918.41;4986585;28;123841;-71
2023/07/03 00:27:34;;;;;;;8.93;2.75;;;;;;;19.70;43.66;100916.69;4968275;28;118438;-71
2023/07/03 00:30:02;;;;;;;9.95;2.95;;;;;;;19.68;43.68;100907.91;4986275;28;119512;-71
2023/07/03 00:32:29;;;;;;;9.93;2.95;;;;;;;19.65;43.70;100909.88;4977801;28;122888;-71
2023/07/03 00:34:57;;;;;;;14.82;3.35;;;;;;;19.65;43.69;100909.88;4968508;28;123196;-71
2023/07/03 00:37:24;;;;;;;16.27;3.35;;;;;;;19.65;43.82;100909.03;4987710;28;119709;-71
2023/07/03 00:39:53;;;;;;;11.73;2.88;;;;;;;19.64;43.85;100913.53;4969137;28;118329;-72
2023/07/03 00:42:28;;;;;;;9.68;3.13;;;;;;;19.62;43.93;100910.13;4987312;28;124904;-71
2023/07/03 00:44:55;;;;;;;;;;;;;;;19.58;43.93;100914.03;4988715;28;124523;-71
2023/07/03 00:47:23;;;;;;;11.70;2.97;;;;;;;19.60;43.83;100906.69;4973965;28;120816;-71
2023/07/03 00:49:51;;;;;;;11.20;3.38;;;;;;;19.60;44.02;100906.69;4973033;28;119062;-71
2023/07/03 00:52:20;;;;;;;11.15;2.88;;;;;;;19.60;44.05;100912.06;4996046;28;124560;-71
2023/07/03 00:54:48;;;;;;;8.40;2.55;;;;;;;19.59;43.86;100910.38;4971132;28;123116;-71
2023/07/03 00:57:16;;;;;;;9.02;2.83;;;;;;;19.57;44.08;100917.72;4978342;28;119894;-71
2023/07/03 00:59:43;;;;;;;13.30;3.35;;;;;;;19.55;44.06;100908.94;4989403;28;120470;-71
2023/07/03 01:02:19;;;;;;;12.07;3.20;;;;;;;19.53;44.21;100910.88;4995171;28;124666;-71
2023/07/03 01:04:56;;;;;;;10.18;3.03;;;;;;;19.53;44.02;100912.72;4967538;28;123219;-71
2023/07/03 01:07:28;;;;;;;13.20;3.50;;;;;;;19.51;44.23;100907.44;4966703;28;119572;-71
2023/07/03 01:10:00;;;;;;;13.38;2.85;;;;;;;19.49;44.10;100909.41;4958463;28;119566;-72
2023/07/03 01:12:30;;;;;;;13.35;3.25;;;;;;;19.48;44.23;100902.34;4970647;28;123235;-71
2023/07/03 01:15:01;;;;;;;11.70;2.95;;;;;;;19.47;44.39;100906.00;4969102;28;124078;-71
2023/07/03 01:17:30;;;;;;;11.75;2.80;;;;;;;19.48;44.32;100891.59;4983358;28;118594;-72
2023/07/03 01:19:59;;;;;;;9.50;2.97;;;;;;;19.48;44.59;100902.34;4989463;28;118717;-71
2023/07/03 01:22:42;;;;;;;11.60;3.17;;;;;;;19.48;44.48;100896.97;4970389;28;124028;-71
2023/07/03 01:25:16;;;;;;;9.60;3.00;;;;;;;19.50;44.48;100900.38;4997775;28;122826;-71
2023/07/03 01:27:47;;;;;;;13.73;2.90;;;;;;;19.48;44.64;100902.34;5013892;28;119106;-71
2023/07/03 01:30:18;;;;;;;11.77;3.25;;;;;;;19.48;44.69;100902.34;4960004;28;119066;-71
2023/07/03 01:32:49;;;;;;;14.20;3.60;;;;;;;19.47;44.84;100900.63;4983537;28;124051;-71
2023/07/03 01:35:18;;;;;;;13.10;3.45;;;;;;;19.45;44.57;100898.06;4987706;28;124206;-71
2023/07/03 01:37:49;;;;;;;10.02;3.00;;;;;;;19.44;44.71;100901.75;4989107;28;119394;-71
2023/07/03 01:40:20;;;;;;;9.65;2.85;;;;;;;19.43;44.69;100899.19;4977009;28;118840;-71
2023/07/03 01:42:47;;;;;;;9.63;3.13;;;;;;;19.41;44.94;100901.13;4977507;28;125722;-71
2023/07/03 01:45:15;;;;;;;14.25;3.30;;;;;;;19.40;44.76;100910.16;4970935;28;123994;-71
2023/07/03 01:47:42;;;;;;;14.50;3.33;;;;;;;19.40;45.02;100900.28;4988475;28;120115;-71
2023/07/03 01:50:17;;;;;;;14.73;3.38;;;;;;;19.38;44.97;100901.38;4954749;28;119409;-71
2023/07/03 01:52:51;;;;;;;11.10;3.20;;;;;;;19.37;45.09;100894.31;4970326;28;123960;-71
2023/07/03 01:55:49;;;;;;;11.00;3.22;;;;;;;19.35;45.11;100899.81;4970242;28;124030;-71
2023/07/03 01:58:40;;;;;;;13.80;3.10;;;;;;;19.32;45.16;100901.88;4994401;28;118266;-71
2023/07/03 02:01:12;;;;;;;13.48;2.97;;;;;;;19.31;45.23;100895.66;4950126;28;118051;-71
2023/07/03 02:03:58;;;;;;;12.63;3.20;;;;;;;19.31;45.31;100900.16;4987389;28;123737;-71
2023/07/03 02:06:33;;;;;;;13.68;3.15;;;;;;;19.30;45.27;100895.78;4988702;28;123856;-71
2023/07/03 02:09:02;;;;;;;12.00;3.08;;;;;;;19.26;45.26;100904.09;4978993;28;119339;-71
2023/07/03 02:11:32;;;;;;;13.23;2.97;;;;;;;19.24;45.41;100903.34;4973926;28;118953;-71
2023/07/03 02:14:00;;;;;;;10.50;3.03;;;;;;;19.24;45.47;100900.66;4971295;28;123371;-71
2023/07/03 02:16:29;;;;;;;14.25;3.03;;;;;;;19.23;45.58;100893.59;4972037;28;123514;-71
2023/07/03 02:18:58;;;;;;;13.48;3.53;;;;;;;19.22;45.56;100894.56;4972492;28;119494;-71
2023/07/03 02:21:27;;;;;;;15.13;3.38;;;;;;;19.20;45.69;100888.47;4970104;28;118278;-71
2023/07/03 02:23:55;;;;;;;15.45;3.42;;;;;;;19.19;45.71;100889.47;4953711;28;123203;-71
2023/07/03 02:26:22;;;;;;;15.90;3.35;;;;;;;19.16;45.89;100889.69;4969854;28;123449;-71
2023/07/03 02:28:50;;;;;;;14.52;3.42;;;;;;;19.16;45.89;100878.13;4970540;28;119683;-71
2023/07/03 02:31:17;;;;;;;14.25;3.50;;;;;;;19.14;46.15;100883.59;4971622;28;118629;-71
2023/07/03 02:33:45;;;;;;;13.68;3.22;;;;;;;19.12;46.21;100880.19;4988575;28;123775;-71
2023/07/03 02:36:12;;;;;;;13.80;3.40;;;;;;;19.10;46.15;100884.84;4977522;28;123520;-70
2023/07/03 02:38:39;;;;;;;19.80;4.00;;;;;;;19.07;46.17;100882.38;4989372;28;120806;-70
2023/07/03 02:41:06;;;;;;;14.32;3.60;;;;;;;19.06;46.36;100881.53;4992212;28;120004;-71
2023/07/03 02:43:33;;;;;;;17.08;3.90;;;;;;;19.05;46.50;100874.44;4997277;28;123462;-70
2023/07/03 02:46:05;;;;;;;14.05;3.50;;;;;;;19.05;46.53;100876.28;4987609;28;122887;-71
2023/07/03 02:48:34;;;;;;;11.73;3.55;;;;;;;19.06;46.46;100875.28;4984612;28;118200;-70
2023/07/03 02:51:02;;;;;;;14.88;3.33;;;;;;;19.05;46.61;100870.91;4999266;28;117234;-70
2023/07/03 02:53:29;;;;;;;14.90;4.00;;;;;;;19.04;46.68;100877.25;4984519;28;122156;-70
2023/07/03 02:56:04;;;;;;;18.15;3.88;;;;;;;19.03;46.77;100870.19;4982306;28;123873;-70
2023/07/03 02:58:34;;;;;;;15.95;3.50;;;;;;;19.00;46.90;100855.16;4983648;28;118567;-70
2023/07/03 03:01:02;;;;;;;15.10;3.60;;;;;;;18.98;47.01;100859.81;4978509;28;119069;-71
2023/07/03 03:03:31;;;;;;;14.85;3.88;;;;;;;18.98;47.17;100862.50;4956966;28;123788;-70
2023/07/03 03:05:58;;;;;;;14.30;3.50;;;;;;;18.97;47.31;100865.31;4979431;28;123615;-70
2023/07/03 03:08:25;;;;;;;16.20;3.75;;;;;;;18.94;47.31;100860.19;4976924;28;118494;-71
2023/07/03 03:10:53;;;;;;;18.75;3.75;;;;;;;18.93;47.54;100853.09;4988977;28;119132;-71
2023/07/03 03:13:21;;;;;;;16.67;3.95;;;;;;;18.91;47.55;100855.94;4969874;28;124045;-70
2023/07/03 03:15:51;;;;;;;15.43;3.53;;;;;;;18.89;47.89;100857.00;4966560;28;124610;-71
2023/07/03 03:18:18;;;;;;;15.60;3.50;;;;;;;18.86;47.77;100853.59;4970061;28;119169;-70
2023/07/03 03:20:46;;;;;;;13.43;3.60;;;;;;;18.84;48.01;100850.19;4976888;28;118643;-71
2023/07/03 03:23:13;;;;;;;11.45;3.45;;;;;;;18.82;47.99;100852.16;4986665;28;124651;-71
2023/07/03 03:25:42;;;;;;;19.75;4.43;;;;;;;18.79;48.15;100857.72;4986582;28;124363;-71
2023/07/03 03:28:10;;;;;;;14.93;3.70;;;;;;;18.76;48.20;100851.72;4975142;28;119617;-70
2023/07/03 03:30:39;;;;;;;12.40;3.65;;;;;;;18.73;48.23;100857.38;4969040;28;119125;-72
2023/07/03 03:33:07;;;;;;;18.02;3.50;;;;;;;18.70;48.36;100855.75;4988464;28;124140;-73
2023/07/03 03:35:34;;;;;;;20.52;3.97;;;;;;;18.68;48.46;100846.97;4968837;28;123341;-74
2023/07/03 03:38:01;;;;;;;16.58;3.90;;;;;;;18.67;48.61;100861.38;4969380;28;120043;-73
2023/07/03 03:40:29;;;;;;;16.77;3.67;;;;;;;18.64;48.66;100856.25;4968573;28;119671;-74
2023/07/03 03:42:56;;;;;;;19.52;3.85;;;;;;;18.61;48.89;100854.66;4986266;28;124292;-73
2023/07/03 03:45:24;;;;;;;23.33;3.67;;;;;;;18.58;48.81;100864.78;4968631;28;125102;-74
2023/07/03 03:47:52;;;;;;;17.30;4.38;;;;;;;18.57;48.81;100863.06;4984964;28;120465;-74
2023/07/03 03:50:19;;;;;;;19.83;3.95;;;;;;;18.56;48.86;100866.75;4968219;28;118687;-71
2023/07/03 03:52:47;;;;;;;19.83;3.85;;;;;;;18.54;49.06;100861.50;4953111;28;122386;-71
2023/07/03 03:55:15;;;;;;;16.05;3.80;;;;;;;18.54;49.22;100864.16;4986093;28;124074;-71
2023/07/03 03:57:42;;;;;;;20.38;3.80;;;;;;;18.53;49.48;100862.44;4986559;28;119747;-71
2023/07/03 04:00:16;;;;;;;16.30;3.88;;;;;;;18.52;49.38;100865.28;4971676;28;118660;-71
2023/07/03 04:02:44;;;;;;;15.65;3.47;;;;;;;18.53;49.74;100861.59;4978346;28;123397;-71
2023/07/03 04:05:12;;;;;;;20.23;3.63;;;;;;;18.53;49.91;100872.34;4984005;28;123685;-71
2023/07/03 04:07:39;;;;;;;14.88;3.50;;;;;;;18.52;49.78;100871.50;4986724;28;119222;-71
2023/07/03 04:10:08;;;;;;;17.38;3.85;;;;;;;18.52;49.76;100870.66;4986723;28;119764;-71
2023/07/03 04:12:35;;;;;;;18.92;4.03;;;;;;;18.51;49.92;100868.91;4985951;28;124784;-71
2023/07/03 04:15:03;;;;;;;24.83;4.80;;;;;;;18.52;50.08;100876.00;4985801;28;124328;-71
2023/07/03 04:17:30;;;;;;;11.93;3.53;;;;;;;18.53;50.30;100878.53;4965114;28;119298;-71
2023/07/03 04:19:57;;;;;;;18.25;4.07;;;;;;;18.53;50.28;100872.34;4967235;28;120710;-71
2023/07/03 04:22:26;;;;;;;17.88;3.88;;;;;;;18.54;50.34;100874.06;4985485;28;123846;-71
2023/07/03 04:24:53;;;;;;;18.40;3.80;;;;;;;18.56;50.61;100866.75;4987384;28;124839;-71
2023/07/03 04:27:20;;;;;;;19.27;4.13;;;;;;;18.57;50.51;100869.31;4986368;28;119825;-71
2023/07/03 04:29:47;;;;;;;17.10;3.90;;;;;;;18.59;50.69;100871.84;4967021;28;118771;-71
2023/07/03 04:32:15;;;;;;;18.73;4.13;;;;;;;18.60;50.58;100873.56;4969911;28;123685;-71
2023/07/03 04:34:42;;;;;;;18.17;3.90;;;;;;;18.60;50.64;100871.72;4985683;28;123357;-71
2023/07/03 04:37:09;;;;;;;18.33;4.00;;;;;;;18.63;50.68;100884.06;4985396;28;119806;-71
2023/07/03 04:39:36;;;;;;;15.45;3.92;;;;;;;18.65;50.86;100871.38;4985664;28;118555;-71
2023/07/03 04:42:04;;;;;;;23.45;4.32;;;;;;;18.66;50.79;100873.06;4985175;28;125239;-71
2023/07/03 04:44:33;;;;;;;19.50;4.25;;;;;;;18.69;50.98;100862.13;4984512;28;123905;-71
2023/07/03 04:47:04;;;;;;;15.80;3.80;;;;;;;18.70;51.00;100876.38;4989266;28;119105;-71
2023/07/03 04:49:32;;;;;;;17.90;4.25;;;;;;;18.70;50.91;100874.53;4988328;28;118772;-71
2023/07/03 04:52:00;;;;;;;24.25;4.57;;;;;;;18.72;51.04;100877.94;4989202;28;123943;-71
2023/07/03 04:54:27;;;;;;;15.88;3.95;;;;;;;18.73;51.10;100879.66;4985028;28;124273;-71
2023/07/03 04:56:56;;;;;;;16.83;4.00;;;;;;;18.76;51.29;100876.75;4976771;28;120685;-71
2023/07/03 04:59:23;;;;;;;15.52;3.92;;;;;;;18.78;51.13;100877.50;4970362;28;117720;-71
2023/07/03 05:01:50;;;;;;;15.00;3.70;;;;;;;18.79;51.07;100879.19;4988850;28;123818;-71
2023/07/03 05:04:18;;;;;;;18.48;4.18;;;;;;;18.81;51.18;100887.16;4988732;28;124801;-71
2023/07/03 05:06:46;;;;;;;19.00;4.30;;;;;;;18.82;51.18;100894.22;4989262;28;120261;-70
2023/07/03 05:09:13;;;;;;;15.73;3.85;;;;;;;18.83;51.22;100891.41;4989066;28;119936;-71
2023/07/03 05:11:40;;;;;;;15.50;3.92;;;;;;;18.84;51.32;100893.13;4970254;28;123083;-71
2023/07/03 05:14:07;;;;;;;17.20;4.18;;;;;;;18.86;51.39;100893.84;4970743;28;125012;-71
2023/07/03 05:16:34;;;;;;;20.67;4.45;;;;;;;18.89;51.31;100894.59;4988791;28;119019;-71
2023/07/03 05:19:02;;;;;;;19.45;3.80;;;;;;;18.90;51.23;100896.31;5000078;28;119014;-71
2023/07/03 05:21:29;;;;;;;20.17;3.72;;;;;;;18.91;51.33;100908.75;4980498;28;123980;-71
2023/07/03 05:23:56;;;;;;;22.00;4.25;;;;;;;18.91;51.63;100908.75;4975818;28;123922;-71
2023/07/03 05:26:24;;;;;;;16.23;3.45;;;;;;;18.92;51.24;100916.66;4988823;28;119570;-71
2023/07/03 05:28:51;;;;;;;17.73;4.63;;;;;;;18.92;51.46;100918.50;4986725;28;120066;-71
2023/07/03 05:31:22;;;;;;;14.00;3.67;;;;;;;18.91;51.40;100924.84;4980165;28;123390;-71
2023/07/03 05:33:50;;;;;;;17.42;3.75;;;;;;;18.92;51.42;100915.81;4987882;28;123920;-71
2023/07/03 05:36:17;;;;;;;15.20;3.70;;;;;;;18.95;51.59;100920.94;4969714;28;118524;-71
2023/07/03 05:38:45;;;;;;;15.05;3.80;;;;;;;18.98;51.63;100920.69;4970987;28;119294;-71
2023/07/03 05:41:12;;;;;;;18.27;4.35;;;;;;;19.01;51.58;100920.47;4969062;28;124513;-71
2023/07/03 05:43:39;;;;;;;18.90;4.10;;;;;;;19.03;51.64;100919.34;4988211;28;124479;-72
2023/07/03 05:46:06;;;;;;;15.82;4.30;;;;;;;19.08;51.54;100927.06;4988430;28;120319;-71
2023/07/03 05:48:33;;;;;;;19.73;4.85;;;;;;;19.13;51.69;100924.84;4988708;28;119657;-70
2023/07/03 05:51:01;;;;;;;16.30;4.45;;;;;;;19.19;51.87;100921.69;4970542;28;123967;-71
2023/07/03 05:53:28;;;;;;;19.45;4.03;;;;;;;19.24;51.83;100927.53;4969498;28;123810;-71
2023/07/03 05:55:57;;;;;;;19.52;4.75;;;;;;;19.32;51.73;100934.13;4988038;28;119391;-71
2023/07/03 05:58:26;;;;;;;20.25;4.40;;;;;;;19.37;51.74;100923.88;4988211;28;120040;-71
2023/07/03 06:00:54;;;;;;;16.15;4.10;;;;;;;19.41;51.77;100934.22;4967308;28;123081;-71
2023/07/03 06:03:24;;;;;;;21.25;4.47;;;;;;;19.42;51.23;100932.38;4968682;28;124569;-71
2023/07/03 06:05:52;;;;;;;18.00;4.35;;;;;;;19.45;51.42;100934.81;4982581;28;119320;-70
2023/07/03 06:08:19;;;;;;;16.77;4.82;;;;;;;19.48;51.60;100931.91;4987126;28;118990;-70
2023/07/03 06:10:47;;;;;;;18.50;4.20;;;;;;;19.51;51.60;100934.31;4969944;28;123810;-70
2023/07/03 06:13:14;;;;;;;15.95;4.38;;;;;;;19.54;51.41;100933.22;4970147;28;123978;-70
2023/07/03 06:15:42;;;;;;;14.23;4.43;;;;;;;19.56;51.41;100937.50;4987855;28;119173;-70
2023/07/03 06:18:09;;;;;;;21.55;4.30;;;;;;;19.59;51.55;100948.00;4988190;28;119142;-70
2023/07/03 06:20:37;;;;;;;16.40;4.43;;;;;;;19.61;51.42;100943.34;4988066;28;123836;-70
2023/07/03 06:23:05;;;;;;;20.70;4.60;;;;;;;19.62;51.33;100944.19;4987562;28;124537;-70
2023/07/03 06:25:32;;;;;;;14.93;4.28;;;;;;;19.63;51.48;100949.44;4983687;28;119267;-71
2023/07/03 06:28:00;;;;;;;16.25;4.85;;;;;;;19.65;51.57;100947.50;4987334;28;119188;-70
2023/07/03 06:30:27;;;;;;;16.20;4.22;;;;;;;19.67;51.40;100943.84;4986831;28;124055;-70
2023/07/03 06:32:54;;;;;;;19.58;4.68;;;;;;;19.70;51.44;100943.56;4989707;28;123660;-70
2023/07/03 06:35:21;;;;;;;18.17;4.32;;;;;;;19.72;51.44;100930.84;4997042;28;120636;-70
2023/07/03 06:37:51;;;;;;;20.05;3.97;;;;;;;19.73;51.32;100949.59;4978192;28;119636;-70
2023/07/03 06:40:19;;;;;;;19.08;3.80;;;;;;;19.74;51.39;100945.06;4982741;28;123983;-71
2023/07/03 06:42:46;;;;;;;24.67;4.10;;;;;;;19.76;51.28;100948.47;4987029;28;124658;-70
2023/07/03 06:45:17;;;;;;;18.02;4.20;;;;;;;19.78;51.33;100942.00;4981304;28;120377;-71
2023/07/03 06:47:45;;;;;;;16.75;4.22;;;;;;;19.80;51.17;100944.56;4991265;28;119963;-70
2023/07/03 06:50:12;;;;;;;17.40;3.67;;;;;;;19.81;51.26;100947.09;4985179;28;124026;-70
2023/07/03 06:52:41;;;;;;;11.57;3.83;;;;;;;19.83;50.96;100960.44;4985611;28;124356;-70
2023/07/03 06:55:08;;;;;;;16.02;4.18;;;;;;;19.81;51.18;100943.56;4985873;28;119069;-71
2023/07/03 06:57:35;;;;;;;14.48;4.35;;;;;;;19.80;51.15;100949.94;4968303;28;118981;-71
2023/07/03 07:00:05;;;;;;;18.10;4.60;;;;;;;19.78;51.22;100935.78;4986206;28;123857;-70
2023/07/03 07:02:33;;;;;;;15.88;4.10;;;;;;;19.80;51.39;100944.56;4972214;28;124187;-70
2023/07/03 07:05:00;;;;;;;16.60;4.75;;;;;;;19.80;51.45;100949.94;4990385;28;119147;-71
2023/07/03 07:07:29;;;;;;;16.98;4.20;;;;;;;19.84;51.61;100951.41;4990997;28;118776;-71
2023/07/03 07:09:57;;;;;;;19.55;4.75;;;;;;;19.87;51.50;100940.38;4952784;28;123691;-71
2023/07/03 07:12:24;;;;;;;17.05;4.57;;;;;;;19.90;51.53;100945.50;4987167;28;124760;-71
2023/07/03 07:14:51;;;;;;;12.80;4.50;;;;;;;19.95;51.36;100948.66;4976571;28;118777;-70
2023/07/03 07:17:19;;;;;;;21.20;4.40;;;;;;;19.97;51.55;100946.72;4974091;28;118382;-71
2023/07/03 07:19:46;;;;;;;19.38;4.85;;;;;;;20.02;51.62;100960.63;4969466;28;123367;-70
2023/07/03 07:22:13;;;;;;;18.80;4.68;;;;;;;20.03;51.29;100951.56;4983613;28;124070;-70
2023/07/03 07:24:40;;;;;;;15.75;3.78;;;;;;;20.06;51.31;100954.97;4969401;28;118286;-71
2023/07/03 07:27:07;;;;;;;16.90;4.82;;;;;;;20.08;51.35;100956.56;4970330;28;119011;-71
2023/07/03 07:29:34;;;;;;;14.82;4.03;;;;;;;20.11;51.48;100952.75;4987486;28;123888;-71
2023/07/03 07:32:02;;;;;;;14.50;4.35;;;;;;;20.14;51.45;100952.53;4987497;28;123734;-71
2023/07/03 07:34:29;;;;;;;20.92;4.15;;;;;;;20.19;51.20;100950.28;4969380;28;120957;-71
2023/07/03 07:36:57;;;;;;;14.82;4.30;;;;;;;20.23;51.17;100957.13;4988683;28;119867;-71
2023/07/03 07:39:26;;;;;;;19.00;4.78;;;;;;;20.26;51.16;100964.91;4988801;28;123786;-71
2023/07/03 07:41:55;;;;;;;20.55;4.05;;;;;;;20.29;51.02;100972.75;4989887;28;123916;-71
2023/07/03 07:44:23;;;;;;;20.17;4.38;;;;;;;20.30;51.15;100969.06;4990678;28;119402;-71
2023/07/03 07:46:50;;;;;;;12.77;3.92;;;;;;;20.33;51.24;100974.19;4975738;28;119125;-71
2023/07/03 07:49:17;;;;;;;16.63;4.60;;;;;;;20.37;51.24;100970.25;4992785;28;124516;-71
2023/07/03 07:51:44;;;;;;;17.83;3.95;;;;;;;20.42;51.12;100973.41;4996389;28;124149;-71
2023/07/03 07:54:11;;;;;;;18.52;4.40;;;;;;;20.46;50.98;100979.38;4979627;28;119295;-71
2023/07/03 07:56:38;;;;;;;18.65;4.40;;;;;;;20.51;50.89;100976.28;4997962;28;118740;-71
2023/07/03 07:59:06;;;;;;;15.57;3.75;;;;;;;20.54;50.51;100976.03;4986459;28;124237;-71
2023/07/03 08:01:33;;;;;;;15.68;4.28;;;;;;;20.58;50.50;100974.78;4986837;28;124088;-72
2023/07/03 08:04:00;;;;;;;15.35;4.65;;;;;;;20.64;50.54;100979.69;4969771;28;119100;-70
2023/07/03 08:06:28;;;;;;;13.05;3.70;;;;;;;20.74;50.67;100982.47;4987637;28;120107;-70
2023/07/03 08:08:55;;;;;;;16.65;4.13;;;;;;;20.85;50.66;100984.19;4974855;28;124453;-71
2023/07/03 08:11:25;;;;;;;14.75;4.22;;;;;;;20.95;50.34;100971.66;4986273;28;125310;-71
2023/07/03 08:13:53;;;;;;;13.18;4.30;;;;;;;21.05;50.07;100975.25;4987232;28;119209;-71
2023/07/03 08:16:20;;;;;;;17.00;4.10;;;;;;;21.19;50.30;100972.22;4970330;28;119049;-71
2023/07/03 08:18:47;;;;;;;15.85;3.90;;;;;;;21.35;49.96;100971.69;4994199;28;124303;-71
2023/07/03 08:21:16;;;;;;;18.60;4.30;;;;;;;21.48;49.56;100971.50;4986088;28;123076;-71
2023/07/03 08:23:44;;;;;;;14.18;3.88;;;;;;;21.61;49.29;100970.41;4968425;28;119372;-71
2023/07/03 08:26:22;;;;;;;19.13;3.83;;;;;;;21.68;48.88;100971.53;4995007;28;120356;-71
2023/07/03 08:28:49;;;;;;;15.13;4.03;;;;;;;21.70;48.62;100967.72;4967421;28;123822;-71
2023/07/03 08:31:17;;;;;;;8.27;3.53;;;;;;;21.71;48.41;100971.28;4990851;28;123607;-71
2023/07/03 08:33:44;;;;;;;17.17;4.40;;;;;;;21.68;48.08;100972.41;4996378;28;119747;-71
2023/07/03 08:36:11;;;;;;;16.10;3.40;;;;;;;21.66;47.91;100979.78;4987041;28;119012;-71
2023/07/03 08:38:42;;;;;;;14.02;3.70;;;;;;;21.64;47.80;100980.91;4969030;28;124087;-70
2023/07/03 08:41:13;;;;;;;17.60;3.38;;;;;;;21.58;47.65;100977.75;4969844;28;123631;-72
2023/07/03 08:43:45;;;;;;;15.38;3.45;;;;;;;21.54;47.47;100981.72;4988841;28;120816;-71
2023/07/03 08:46:23;;;;;;;12.02;3.08;;;;;;;21.50;47.55;100979.44;4971054;28;117041;-72
2023/07/03 08:48:54;;;;;;;12.05;3.20;;;;;;;21.51;47.74;100982.00;4985141;28;124020;-71
2023/07/03 08:51:24;;;;;;;17.55;3.92;;;;;;;21.53;47.61;100985.41;4989829;28;122699;-70
2023/07/03 08:53:54;;;;;;;12.55;3.50;;;;;;;21.57;47.70;100981.44;4970984;28;118727;-70
2023/07/03 08:56:28;;;;;;;14.15;3.53;;;;;;;21.62;47.39;100993.66;4991084;28;118457;-70
2023/07/03 08:58:56;;;;;;;13.00;3.37;;;;;;;21.62;47.03;100993.66;4986330;28;123789;-71
2023/07/03 09:01:38;;;;;;;10.45;3.22;;;;;;;21.59;46.76;100992.09;4988541;28;123670;-71
2023/07/03 09:04:27;;;;;;;12.35;3.13;;;;;;;21.54;46.72;100992.50;4962105;28;119959;-73
2023/07/03 09:06:57;;;;;;;11.88;2.92;;;;;;;21.51;46.54;100998.19;4969328;28;118454;-71
2023/07/03 09:09:35;;;;;;;8.20;3.00;;;;;;;21.51;46.64;101006.25;4999073;28;124657;-71
2023/07/03 09:12:19;;;;;;;13.02;2.92;;;;;;;21.53;46.41;101006.97;4970803;28;122256;-71
2023/07/03 09:14:54;;;;;;;12.77;2.65;;;;;;;21.57;46.38;101007.56;4968116;28;119761;-71
2023/07/03 09:17:24;;;;;;;11.10;3.10;;;;;;;21.63;46.61;101001.63;4973971;28;120497;-71
2023/07/03 09:19:55;;;;;;;9.85;2.90;;;;;;;21.69;46.01;100997.53;4969354;28;124308;-70
2023/07/03 09:22:31;;;;;;;11.13;2.83;;;;;;;21.74;45.38;100997.97;4986555;28;124075;-70
2023/07/03 09:25:02;;;;;;;11.82;2.47;;;;;;;21.80;45.42;100996.56;4967713;28;119839;-71
2023/07/03 09:27:30;;;;;;;24.10;4.50;;;;;;;21.86;45.52;100996.00;4968445;28;118789;-71
2023/07/03 09:30:03;;;;;;;10.98;2.60;;;;;;;21.99;45.46;100995.75;4969996;28;123768;-71
2023/07/03 09:32:32;;;;;;;15.77;2.70;;;;;;;22.15;45.06;101006.81;4984468;28;122972;-70
2023/07/03 09:35:05;;;;;;;9.32;2.40;;;;;;;22.28;44.76;100996.66;4986249;28;119651;-71
2023/07/03 09:37:46;;;;;;;10.98;3.03;;;;;;;22.40;44.81;100993.81;4963185;28;119201;-70
2023/07/03 09:40:18;;;;;;;10.07;2.85;;;;;;;22.55;44.44;101003.19;4983741;28;122883;-71
2023/07/03 09:42:45;;;;;;;9.88;2.90;;;;;;;22.67;44.22;100991.22;4988674;28;125022;-72
2023/07/03 09:45:20;;;;;;;7.30;2.40;;;;;;;22.74;43.60;101003.16;4972428;28;119331;-71
2023/07/03 09:47:55;;;;;;;14.38;3.00;;;;;;;22.76;43.22;101000.31;4973290;28;119028;-71
2023/07/03 09:50:28;;;;;;;16.58;2.75;;;;;;;22.77;43.04;101001.16;4963864;28;123141;-71
2023/07/03 09:52:57;;;;;;;9.70;2.67;;;;;;;22.76;43.11;101000.31;4971375;28;123621;-72
2023/07/03 09:55:36;;;;;;;9.20;2.58;;;;;;;22.77;42.75;101017.34;4970991;28;118482;-72
2023/07/03 09:58:11;;;;;;;8.65;2.10;;;;;;;22.74;42.50;101007.72;4968350;28;118099;-72
2023/07/03 10:00:45;;;;;;;11.00;2.92;;;;;;;22.71;42.32;101008.81;4987322;28;124028;-72
2023/07/03 10:03:27;;;;;;;10.55;2.58;;;;;;;22.74;42.56;101007.72;4983133;28;124642;-72
2023/07/03 10:06:11;;;;;;;9.38;2.50;;;;;;;22.81;42.82;101016.06;4977855;28;120320;-72
2023/07/03 10:08:46;;;;;;;11.65;2.60;;;;;;;22.85;42.53;101010.25;4971734;28;119037;-72
2023/07/03 10:11:21;;;;;;;9.48;3.13;;;;;;;22.86;42.60;101006.53;4971901;28;124112;-73
2023/07/03 10:13:53;;;;;;;14.15;3.30;;;;;;;22.86;42.77;101008.38;4985373;28;124686;-73
2023/07/03 10:16:23;;;;;;;10.82;3.33;;;;;;;22.83;42.39;101016.78;4985624;28;119464;-73
2023/07/03 10:18:56;;;;;;;11.88;3.22;;;;;;;22.80;42.49;101017.91;4970509;28;118813;-73
2023/07/03 10:21:23;;;;;;;8.95;3.00;;;;;;;22.77;42.38;101017.34;4988016;28;124287;-73
2023/07/03 10:23:51;;;;;;;10.80;3.25;;;;;;;22.72;42.24;101021.34;4988968;28;123341;-73
2023/07/03 10:26:20;;;;;;;12.65;3.50;;;;;;;22.67;42.26;101026.31;4999049;28;119086;-73
2023/07/03 10:28:55;;;;;;;11.00;3.42;;;;;;;22.63;42.42;101033.00;4972136;28;118029;-73
2023/07/03 10:31:37;;;;;;;14.50;3.88;;;;;;;22.58;42.31;101035.28;4991681;28;124247;-72
2023/07/03 10:34:10;;;;;;;17.48;3.80;;;;;;;22.62;43.04;101034.00;4979707;28;123267;-73
2023/07/03 10:36:40;;;;;;;12.07;3.60;;;;;;;22.74;43.14;101034.72;4972892;28;119927;-73
2023/07/03 10:39:18;;;;;;;11.65;3.38;;;;;;;22.90;43.44;101028.69;4990297;28;119022;-72
2023/07/03 10:41:51;;;;;;;12.73;3.80;;;;;;;23.06;43.16;101023.59;4967743;28;123624;-72
2023/07/03 10:44:27;;;;;;;11.55;3.58;;;;;;;23.24;43.21;101020.97;4953908;28;125176;-72
2023/07/03 10:46:59;;;;;;;13.25;3.90;;;;;;;23.38;42.82;101011.53;4978773;28;119960;-73
2023/07/03 10:49:33;;;;;;;10.05;3.97;;;;;;;23.49;42.86;101008.66;4980765;28;119866;-73
2023/07/03 10:52:26;;;;;;;13.15;3.83;;;;;;;23.58;42.36;101011.44;4973802;28;125981;-73
2023/07/03 10:55:31;;;;;;;12.25;3.70;;;;;;;23.63;42.39;101009.16;4984238;28;124169;-73
2023/07/03 10:58:25;;;;;;;13.23;3.78;;;;;;;23.67;42.27;101010.53;4973993;28;120145;-73
2023/07/03 11:01:25;;;;;;;9.43;3.90;;;;;;;23.69;42.20;100993.16;4983981;28;120157;-73
2023/07/03 11:04:06;;;;;;;13.40;4.40;;;;;;;23.77;42.21;100995.13;4985135;28;123845;-72
2023/07/03 11:06:53;;;;;;;10.18;3.83;;;;;;;23.89;42.19;100993.94;4970694;28;123517;-73
2023/07/03 11:09:42;;;;;;;17.38;4.00;;;;;;;24.03;42.14;100994.41;4950223;28;118206;-73
2023/07/03 11:12:21;;;;;;;12.07;4.15;;;;;;;24.15;41.78;100998.59;4979248;28;118742;-72
2023/07/03 11:14:59;;;;;;;8.98;3.83;;;;;;;24.23;41.43;101012.22;4953414;28;123305;-73
2023/07/03 11:17:49;;;;;;;13.55;3.67;;;;;;;24.22;40.66;101002.41;4984571;28;123880;-72
2023/07/03 11:20:22;;;;;;;10.60;3.42;;;;;;;24.13;40.49;100995.19;4984895;28;119052;-73
2023/07/03 11:23:05;;;;;;;12.20;3.78;;;;;;;24.02;40.36;101006.25;4970619;28;117283;-73